createdAt,value
2024-02-22T00:02:23.156Z,21.03
2024-02-22T00:07:26.146Z,18.57
2024-02-22T00:12:29.000Z,15.70
2024-02-22T00:17:32.698Z,19.60
2024-02-22T00:22:35.776Z,17.33
2024-02-22T00:27:40.130Z,18.57
2024-02-22T00:32:44.251Z,16.07
2024-02-22T00:37:47.271Z,11.50
2024-02-22T00:42:50.470Z,14.60
2024-02-22T00:47:53.585Z,8.77
2024-02-22T00:52:59.061Z,12.20
2024-02-22T00:58:01.868Z,12.57
2024-02-22T01:03:06.395Z,15.17
2024-02-22T01:08:09.601Z,18.27
2024-02-22T01:13:12.720Z,14.13
2024-02-22T01:18:16.153Z,18.43
2024-02-22T01:23:19.156Z,13.67
2024-02-22T01:28:22.649Z,11.20
2024-02-22T01:33:25.560Z,17.13
2024-02-22T01:38:28.441Z,12.43
2024-02-22T01:43:31.596Z,12.73
2024-02-22T01:48:35.074Z,14.10
2024-02-22T01:53:38.358Z,14.23
2024-02-22T01:58:41.981Z,17.70
2024-02-22T02:03:44.944Z,15.97
2024-02-22T02:08:49.012Z,14.17
2024-02-22T02:13:52.123Z,13.57
2024-02-22T02:18:56.208Z,13.20
2024-02-22T02:24:27.351Z,13.17
2024-02-22T02:29:30.210Z,18.83
2024-02-22T02:34:34.401Z,19.23
2024-02-22T02:39:37.149Z,15.90
2024-02-22T02:44:40.082Z,21.87
2024-02-22T02:49:43.223Z,22.73
2024-02-22T02:54:46.199Z,21.30
2024-02-22T02:59:49.052Z,20.13
2024-02-22T03:04:52.063Z,18.73
2024-02-22T03:09:55.584Z,15.43
2024-02-22T03:14:58.539Z,14.40
2024-02-22T03:20:01.531Z,27.50
2024-02-22T03:25:06.492Z,18.43
2024-02-22T03:30:10.409Z,17.33
2024-02-22T03:35:13.469Z,22.57
2024-02-22T03:40:16.682Z,21.50
2024-02-22T03:45:19.767Z,16.27
2024-02-22T03:50:22.791Z,15.67
2024-02-22T03:55:25.694Z,19.27
2024-02-22T04:00:28.866Z,19.83
2024-02-22T04:05:32.473Z,20.67
2024-02-22T04:10:35.533Z,19.70
2024-02-22T04:15:38.795Z,18.60
2024-02-22T04:20:42.015Z,17.30
2024-02-22T04:25:45.823Z,16.47
2024-02-22T04:30:49.456Z,28.93
2024-02-22T04:35:52.466Z,20.73
2024-02-22T04:40:55.501Z,23.03
2024-02-22T04:45:58.402Z,20.10
2024-02-22T04:51:01.539Z,20.03
2024-02-22T04:56:04.877Z,20.27
2024-02-22T05:01:07.782Z,18.90
2024-02-22T05:06:11.246Z,18.53
2024-02-22T05:11:14.281Z,21.37
2024-02-22T05:16:17.568Z,17.60
2024-02-22T05:21:20.551Z,15.27
2024-02-22T05:26:23.601Z,18.13
2024-02-22T05:31:29.983Z,16.20
2024-02-22T05:36:34.052Z,15.87
2024-02-22T05:41:38.354Z,23.50
2024-02-22T05:46:41.338Z,24.17
2024-02-22T05:51:44.316Z,16.97
2024-02-22T05:56:47.464Z,17.87
2024-02-22T06:01:51.298Z,18.57
2024-02-22T06:06:54.333Z,17.73
2024-02-22T06:11:57.390Z,16.90
2024-02-22T06:17:01.355Z,24.03
2024-02-22T06:22:04.642Z,29.97
2024-02-22T06:27:07.683Z,20.30
2024-02-22T06:32:10.648Z,20.80
2024-02-22T06:37:13.767Z,15.63
2024-02-22T06:42:16.726Z,13.97
2024-02-22T06:47:19.813Z,14.57
2024-02-22T06:52:24.285Z,18.60
2024-02-22T06:57:27.149Z,13.77
2024-02-22T07:02:29.969Z,17.30
2024-02-22T07:07:32.937Z,18.03
2024-02-22T07:12:35.927Z,14.03
2024-02-22T07:17:39.239Z,20.67
2024-02-22T07:22:46.808Z,16.37
2024-02-22T07:27:52.324Z,13.93
2024-02-22T07:32:55.638Z,17.87
2024-02-22T07:37:59.199Z,18.97
2024-02-22T07:43:02.498Z,18.27
2024-02-22T07:48:10.700Z,15.60
2024-02-22T07:53:14.116Z,14.67
2024-02-22T07:58:19.166Z,14.50
2024-02-22T08:03:22.905Z,19.73
2024-02-22T08:08:25.866Z,18.47
2024-02-22T08:13:29.222Z,15.33
2024-02-22T08:18:32.190Z,13.40
2024-02-22T08:23:35.774Z,14.47
2024-02-22T08:28:38.962Z,13.30
2024-02-22T08:33:42.809Z,12.60
2024-02-22T08:38:45.788Z,14.50
2024-02-22T08:43:48.823Z,16.23
2024-02-22T08:48:52.081Z,14.30
2024-02-22T08:53:55.304Z,14.63
2024-02-22T08:58:59.407Z,18.40
2024-02-22T09:04:02.559Z,11.13
2024-02-22T09:09:08.779Z,11.37
2024-02-22T09:14:12.140Z,10.17
2024-02-22T09:19:15.230Z,8.87
2024-02-22T09:24:18.293Z,8.33
2024-02-22T09:29:21.253Z,7.67
2024-02-22T09:34:27.522Z,9.67
2024-02-22T09:39:45.060Z,9.73
2024-02-22T09:44:48.143Z,6.90
2024-02-22T09:49:51.256Z,14.13
2024-02-22T09:54:54.403Z,7.23
2024-02-22T09:59:57.416Z,7.37
2024-02-22T10:05:01.965Z,8.10
2024-02-22T10:10:05.656Z,10.80
2024-02-22T10:15:12.601Z,6.70
2024-02-22T10:20:15.548Z,9.77
2024-02-22T10:25:18.835Z,7.67
2024-02-22T10:30:27.899Z,13.70
2024-02-22T10:35:35.680Z,7.13
2024-02-22T10:40:38.997Z,6.60
2024-02-22T10:45:42.909Z,6.80
2024-02-22T10:50:46.242Z,7.80
2024-02-22T10:55:53.357Z,7.30
2024-02-22T11:00:57.707Z,8.17
2024-02-22T11:06:05.378Z,11.27
2024-02-22T11:11:09.712Z,7.33
2024-02-22T11:16:18.625Z,4.37
2024-02-22T11:21:22.868Z,6.83
2024-02-22T11:26:25.687Z,6.03
2024-02-22T11:31:28.927Z,9.30
2024-02-22T11:36:32.383Z,5.07
2024-02-22T11:41:35.378Z,5.47
2024-02-22T11:46:39.559Z,8.63
2024-02-22T11:57:23.626Z,5.33
2024-02-22T12:02:27.176Z,11.73
2024-02-22T12:07:31.130Z,10.10
2024-02-22T12:12:34.193Z,6.27
2024-02-22T12:17:38.365Z,5.27
2024-02-22T12:22:49.049Z,8.10
2024-02-22T12:27:54.103Z,5.50
2024-02-22T12:32:57.514Z,6.10
2024-02-22T12:38:02.023Z,4.77
2024-02-22T12:43:05.422Z,6.27
2024-02-22T12:48:09.146Z,6.13
2024-02-22T12:53:15.564Z,6.77
2024-02-22T12:58:18.814Z,6.97
2024-02-22T13:03:25.609Z,4.87
2024-02-22T13:08:31.136Z,6.10
2024-02-22T13:13:35.254Z,5.83
2024-02-22T13:18:39.139Z,5.43
2024-02-22T13:23:42.541Z,8.93
2024-02-22T13:28:47.494Z,5.87
2024-02-22T13:33:51.985Z,6.00
2024-02-22T13:38:55.386Z,7.47
2024-02-22T13:43:58.571Z,5.57
2024-02-22T13:49:01.572Z,7.33
2024-02-22T13:54:05.043Z,7.47
2024-02-22T13:59:08.472Z,6.03
2024-02-22T14:04:11.731Z,6.73
2024-02-22T14:09:18.296Z,5.37
2024-02-22T14:14:21.364Z,7.63
2024-02-22T14:19:25.288Z,7.43
2024-02-22T14:24:28.610Z,7.07
2024-02-22T14:29:31.386Z,5.93
2024-02-22T14:34:35.747Z,8.40
2024-02-22T14:39:39.039Z,10.80
2024-02-22T14:44:43.868Z,8.43
2024-02-22T14:49:47.259Z,6.43
2024-02-22T14:54:50.344Z,8.87
2024-02-22T14:59:53.279Z,7.47
2024-02-22T15:04:56.286Z,13.03
2024-02-22T15:09:59.457Z,10.00
2024-02-22T15:15:03.996Z,18.90
2024-02-22T15:20:09.000Z,12.90
2024-02-22T15:25:14.904Z,7.97
2024-02-22T15:30:18.268Z,6.60
2024-02-22T15:35:23.020Z,9.27
2024-02-22T15:40:25.984Z,8.93
2024-02-22T15:45:29.902Z,10.23
2024-02-22T15:50:32.926Z,8.83
2024-02-22T15:55:37.419Z,8.40
2024-02-22T16:00:42.628Z,14.53
2024-02-22T16:05:45.939Z,8.83
2024-02-22T16:10:49.499Z,12.03
2024-02-22T16:15:55.043Z,10.67
2024-02-22T16:20:58.759Z,12.50
2024-02-22T16:26:02.232Z,16.13
2024-02-22T16:31:05.994Z,14.33
2024-02-22T16:36:09.554Z,12.00
2024-02-22T16:41:28.486Z,10.53
2024-02-22T16:46:31.614Z,10.50
2024-02-22T16:51:36.608Z,10.20
2024-02-22T16:56:44.002Z,9.33
2024-02-22T17:01:47.350Z,9.83
2024-02-22T17:06:51.138Z,11.50
2024-02-22T17:11:55.902Z,11.63
2024-02-22T17:17:00.071Z,12.53
2024-02-22T17:22:03.312Z,12.43
2024-02-22T17:27:08.673Z,7.57
2024-02-22T17:32:12.878Z,13.93
2024-02-22T17:37:16.920Z,12.33
2024-02-22T17:42:21.319Z,12.27
2024-02-22T17:47:27.452Z,9.27
2024-02-22T17:52:31.000Z,9.30
2024-02-22T17:57:35.170Z,10.37
2024-02-22T18:02:39.496Z,13.27
2024-02-22T18:07:43.611Z,14.33
2024-02-22T18:12:50.857Z,9.47
2024-02-22T18:17:55.762Z,13.37
2024-02-22T18:23:00.115Z,13.47
2024-02-22T18:28:07.409Z,6.03
2024-02-22T18:33:11.788Z,11.57
2024-02-22T18:38:16.288Z,9.00
2024-02-22T18:43:20.968Z,11.47
2024-02-22T18:48:24.927Z,10.17
2024-02-22T18:53:29.980Z,13.77
2024-02-22T18:58:36.723Z,12.50
2024-02-22T19:03:42.744Z,10.70
2024-02-22T19:08:47.703Z,12.53
2024-02-22T19:13:52.342Z,8.93
2024-02-22T19:18:58.265Z,10.73
2024-02-22T19:24:02.109Z,14.83
2024-02-22T19:29:06.639Z,11.37
2024-02-22T19:34:10.948Z,16.20
2024-02-22T19:39:16.240Z,16.27
2024-02-22T19:44:24.341Z,9.97
2024-02-22T19:49:30.146Z,12.53
2024-02-22T19:54:36.015Z,18.87
2024-02-22T19:59:40.230Z,13.30
2024-02-22T20:04:45.428Z,15.67
2024-02-22T20:09:50.057Z,14.40
2024-02-22T20:14:54.575Z,10.63
2024-02-22T20:19:59.261Z,13.90
2024-02-22T20:25:06.587Z,11.97
2024-02-22T20:30:15.138Z,13.80
2024-02-22T20:35:25.922Z,9.53
2024-02-22T20:40:35.237Z,9.47
2024-02-22T20:45:42.270Z,12.00
2024-02-22T20:50:46.982Z,11.50
2024-02-22T20:55:52.885Z,11.87
2024-02-22T21:00:58.240Z,11.07
2024-02-22T21:06:02.744Z,13.17
2024-02-22T21:11:09.811Z,12.80
2024-02-22T21:16:15.161Z,12.67
2024-02-22T21:21:22.438Z,12.97
2024-02-22T21:26:26.820Z,13.67
2024-02-22T21:31:31.951Z,13.50
2024-02-22T21:36:36.128Z,28.97
2024-02-22T21:41:40.268Z,28.77
2024-02-22T21:46:44.220Z,12.20
2024-02-22T21:51:48.689Z,14.97
2024-02-22T21:56:52.673Z,16.97
2024-02-22T22:01:55.859Z,15.20
2024-02-22T22:06:58.892Z,12.13
2024-02-22T22:12:02.078Z,12.50
2024-02-22T22:17:05.737Z,9.80
2024-02-22T22:22:08.979Z,8.67
2024-02-22T22:27:12.654Z,15.40
2024-02-22T22:32:15.861Z,15.13
2024-02-22T22:37:21.133Z,13.97
2024-02-22T22:42:24.497Z,11.80
2024-02-22T22:47:27.424Z,13.23
2024-02-22T22:52:30.836Z,9.77
2024-02-22T22:57:34.516Z,10.03
2024-02-22T23:02:37.770Z,10.57
2024-02-22T23:07:41.084Z,12.40
2024-02-22T23:12:44.178Z,5.83
2024-02-22T23:17:47.349Z,11.77
2024-02-22T23:22:50.345Z,11.77
2024-02-22T23:27:53.481Z,12.03
2024-02-22T23:32:56.569Z,13.70
2024-02-22T23:37:59.841Z,12.07
2024-02-22T23:43:04.565Z,13.60
2024-02-22T23:48:08.223Z,6.60
2024-02-22T23:53:11.430Z,8.33
2024-02-22T23:58:14.388Z,12.10
